Time;durP1;ratioP1;P1;durP2;ratioP2;P2;SDS_P1;SDS_P2;PMS_P1;PMS_P2;Temp;Humidity;BMP_temperature;BMP_pressure;BME280_temperature;BME280_humidity;BME280_pressure;Samples;Min_cycle;Max_cycle;Signal;HPM_P1;HPM_P2
2022/10/22 00:01:06;;;;;;;0.00;0.00;;;13.00;99.90;;;;;;5070040;28;20191;-72
2022/10/22 00:03:33;;;;;;;0.00;0.00;;;12.90;99.90;;;;;;5069508;28;20203;-72
2022/10/22 00:06:04;;;;;;;0.00;0.00;;;12.90;99.90;;;;;;5066927;28;20294;-72
2022/10/22 00:08:31;;;;;;;0.00;0.00;;;12.90;99.90;;;;;;5052087;28;20341;-72
2022/10/22 00:10:58;;;;;;;0.00;0.00;;;12.80;99.90;;;;;;5065903;28;20214;-72
2022/10/22 00:13:27;;;;;;;0.00;0.00;;;12.80;99.90;;;;;;5069769;28;20202;-72
2022/10/22 00:15:54;;;;;;;0.00;0.00;;;12.80;99.90;;;;;;5066242;28;20293;-72
2022/10/22 00:18:20;;;;;;;0.10;0.10;;;12.70;99.90;;;;;;5068900;28;20218;-73
2022/10/22 00:20:48;;;;;;;0.00;0.00;;;12.80;99.90;;;;;;5065806;28;20259;-72
2022/10/22 00:23:15;;;;;;;0.00;0.00;;;12.70;99.90;;;;;;5068965;28;20218;-72
2022/10/22 00:25:42;;;;;;;0.00;0.00;;;12.70;99.90;;;;;;5072960;28;20655;-72
2022/10/22 00:28:10;;;;;;;0.00;0.00;;;12.70;99.90;;;;;;5068128;28;20226;-72
2022/10/22 00:30:39;;;;;;;0.00;0.00;;;12.60;99.90;;;;;;5062839;28;20206;-72
2022/10/22 00:33:06;;;;;;;0.00;0.00;;;12.80;99.90;;;;;;5064924;28;20198;-73
2022/10/22 00:35:33;;;;;;;0.00;0.00;;;12.70;99.90;;;;;;5066690;28;20206;-73
2022/10/22 00:38:00;;;;;;;0.00;0.00;;;12.70;99.90;;;;;;5065849;28;20627;-72
2022/10/22 00:40:28;;;;;;;0.00;0.00;;;12.70;99.90;;;;;;5063100;28;20225;-72
2022/10/22 00:42:57;;;;;;;0.00;0.00;;;12.80;99.90;;;;;;5066271;28;20698;-72
2022/10/22 00:45:27;;;;;;;0.07;0.07;;;12.80;99.90;;;;;;5067635;28;20208;-72
2022/10/22 00:48:00;;;;;;;0.00;0.00;;;12.80;99.90;;;;;;5068210;28;20686;-72
2022/10/22 00:50:31;;;;;;;0.10;0.10;;;12.80;99.90;;;;;;5054524;28;20221;-72
2022/10/22 00:52:59;;;;;;;0.00;0.00;;;12.80;99.90;;;;;;5070047;28;20199;-72
2022/10/22 00:55:31;;;;;;;0.00;0.00;;;12.80;99.90;;;;;;5066155;28;20220;-72
2022/10/22 00:58:01;;;;;;;0.00;0.00;;;12.80;99.90;;;;;;5051411;28;20242;-72
2022/10/22 01:00:28;;;;;;;0.00;0.00;;;12.80;99.90;;;;;;5066186;28;20202;-72
2022/10/22 01:03:00;;;;;;;0.00;0.00;;;12.80;99.90;;;;;;5065411;28;20291;-72
2022/10/22 01:05:29;;;;;;;0.00;0.00;;;12.80;99.90;;;;;;5066896;28;20249;-72
2022/10/22 01:07:56;;;;;;;0.00;0.00;;;12.80;99.90;;;;;;5067447;28;20237;-72
2022/10/22 01:10:45;;;;;;;0.00;0.00;;;12.80;99.90;;;;;;5065656;28;20234;-72
2022/10/22 01:13:24;;;;;;;0.00;0.00;;;12.90;99.90;;;;;;5070773;28;20207;-72
2022/10/22 01:16:00;;;;;;;0.00;0.00;;;12.90;99.90;;;;;;5079938;28;20198;-73
2022/10/22 01:18:36;;;;;;;0.00;0.00;;;12.90;99.90;;;;;;5066784;28;20226;-72
2022/10/22 01:21:12;;;;;;;0.00;0.00;;;12.90;99.90;;;;;;5067162;28;20204;-72
2022/10/22 01:24:15;;;;;;;0.00;0.00;;;12.90;99.90;;;;;;5066892;28;20285;-72
2022/10/22 01:27:00;;;;;;;0.00;0.00;;;13.00;99.90;;;;;;5066438;28;20199;-72
2022/10/22 01:29:33;;;;;;;0.00;0.00;;;13.00;99.90;;;;;;5066000;28;20224;-72
2022/10/22 01:32:04;;;;;;;0.00;0.00;;;13.00;99.90;;;;;;5062059;28;20204;-73
2022/10/22 01:34:33;;;;;;;0.00;0.00;;;12.90;99.90;;;;;;5066315;28;20199;-72
2022/10/22 01:37:01;;;;;;;0.00;0.00;;;12.90;99.90;;;;;;5067367;28;20194;-72
2022/10/22 01:39:30;;;;;;;0.00;0.00;;;12.90;99.90;;;;;;5065124;28;20222;-72
2022/10/22 01:41:58;;;;;;;0.00;0.00;;;12.90;99.90;;;;;;5065968;28;20275;-72
2022/10/22 01:44:28;;;;;;;0.00;0.00;;;12.90;99.90;;;;;;5070873;28;20202;-72
2022/10/22 01:47:14;;;;;;;0.00;0.00;;;12.90;99.90;;;;;;5067855;28;20201;-72
2022/10/22 01:50:04;;;;;;;0.00;0.00;;;12.90;99.90;;;;;;5062786;28;20245;-72
2022/10/22 01:52:49;;;;;;;0.00;0.00;;;12.90;99.90;;;;;;5065741;28;20227;-72
2022/10/22 01:55:25;;;;;;;0.10;0.10;;;12.90;99.90;;;;;;5082547;28;20294;-72
2022/10/22 01:58:04;;;;;;;0.00;0.00;;;12.80;99.90;;;;;;5068393;28;20281;-72
2022/10/22 02:00:34;;;;;;;0.00;0.00;;;12.80;99.90;;;;;;5071043;28;20297;-72
2022/10/22 02:03:07;;;;;;;0.03;0.03;;;12.80;99.90;;;;;;5082497;28;20202;-72
2022/10/22 02:05:40;;;;;;;0.00;0.00;;;12.80;99.90;;;;;;5066106;28;20289;-72
2022/10/22 02:08:10;;;;;;;0.00;0.00;;;12.90;99.90;;;;;;5069684;28;20214;-72
2022/10/22 02:10:39;;;;;;;0.00;0.00;;;12.90;99.90;;;;;;5071518;28;20263;-72
2022/10/22 02:13:10;;;;;;;0.00;0.00;;;12.90;99.90;;;;;;5073572;28;20224;-72
2022/10/22 02:15:40;;;;;;;0.00;0.00;;;12.90;99.90;;;;;;5067799;28;20226;-72
2022/10/22 02:18:09;;;;;;;0.00;0.00;;;12.90;99.90;;;;;;5069122;28;20347;-72
2022/10/22 02:20:38;;;;;;;0.00;0.00;;;12.90;99.90;;;;;;5068502;28;20931;-72
2022/10/22 02:23:06;;;;;;;0.00;0.00;;;12.90;99.90;;;;;;5056547;28;20210;-72
2022/10/22 02:25:36;;;;;;;0.00;0.00;;;13.00;99.90;;;;;;5069466;28;20236;-72
2022/10/22 02:28:11;;;;;;;0.00;0.00;;;13.00;99.90;;;;;;5070123;28;20221;-72
2022/10/22 02:30:42;;;;;;;0.00;0.00;;;13.00;99.90;;;;;;5067222;28;20201;-72
2022/10/22 02:33:15;;;;;;;0.00;0.00;;;13.00;99.90;;;;;;5068494;28;20195;-72
2022/10/22 02:35:43;;;;;;;0.00;0.00;;;13.00;99.90;;;;;;5068464;28;20215;-72
2022/10/22 02:38:12;;;;;;;0.00;0.00;;;13.10;99.90;;;;;;5067428;28;20218;-72
2022/10/22 02:40:39;;;;;;;0.00;0.00;;;13.10;99.90;;;;;;5061932;28;20247;-72
2022/10/22 02:43:06;;;;;;;0.00;0.00;;;13.00;99.90;;;;;;5071826;28;20194;-72
2022/10/22 02:45:34;;;;;;;0.00;0.00;;;13.00;99.90;;;;;;5065829;28;20232;-72
2022/10/22 02:48:05;;;;;;;0.00;0.00;;;13.00;99.90;;;;;;5071713;28;20304;-72
2022/10/22 02:50:32;;;;;;;0.00;0.00;;;13.00;99.90;;;;;;5069045;28;20296;-72
2022/10/22 02:52:59;;;;;;;0.00;0.00;;;13.00;99.90;;;;;;5067901;28;20205;-72
2022/10/22 02:55:26;;;;;;;0.00;0.00;;;13.00;99.90;;;;;;5064509;28;20260;-72
2022/10/22 02:57:53;;;;;;;0.00;0.00;;;13.00;99.90;;;;;;5069072;28;20210;-72
2022/10/22 03:00:21;;;;;;;0.00;0.00;;;13.00;99.90;;;;;;5066111;28;20182;-71
2022/10/22 03:02:48;;;;;;;0.00;0.00;;;13.00;99.90;;;;;;5065653;28;20295;-72
2022/10/22 03:05:16;;;;;;;0.00;0.00;;;13.10;99.90;;;;;;5069285;28;20252;-72
2022/10/22 03:07:44;;;;;;;0.00;0.00;;;13.10;99.90;;;;;;5068853;28;20206;-72
2022/10/22 03:10:11;;;;;;;0.00;0.00;;;13.10;99.90;;;;;;5086094;28;20321;-72
2022/10/22 03:12:41;;;;;;;0.00;0.00;;;13.10;99.90;;;;;;5066204;28;20212;-72
2022/10/22 03:15:09;;;;;;;0.00;0.00;;;13.10;99.90;;;;;;5067223;28;20281;-72
2022/10/22 03:17:36;;;;;;;0.00;0.00;;;13.10;99.90;;;;;;5068644;28;20190;-72
2022/10/22 03:20:04;;;;;;;0.00;0.00;;;13.20;99.90;;;;;;5070762;28;20265;-72
2022/10/22 03:22:35;;;;;;;0.00;0.00;;;13.20;99.90;;;;;;5072062;28;20228;-72
2022/10/22 03:25:06;;;;;;;0.00;0.00;;;13.10;99.90;;;;;;5068448;28;20256;-72
2022/10/22 03:27:38;;;;;;;0.00;0.00;;;13.20;99.90;;;;;;5051151;28;20749;-72
2022/10/22 03:30:08;;;;;;;0.00;0.00;;;13.20;99.90;;;;;;5066801;28;20253;-72
2022/10/22 03:32:35;;;;;;;0.00;0.00;;;13.20;99.90;;;;;;5066911;28;20201;-72
2022/10/22 03:35:02;;;;;;;0.00;0.00;;;13.20;99.90;;;;;;5067033;28;20291;-72
2022/10/22 03:37:29;;;;;;;0.00;0.00;;;13.20;99.90;;;;;;5068809;28;20290;-71
2022/10/22 03:39:57;;;;;;;0.00;0.00;;;13.20;99.90;;;;;;5070007;28;20243;-72
2022/10/22 03:42:25;;;;;;;0.00;0.00;;;13.20;99.90;;;;;;5065936;28;20225;-71
2022/10/22 03:44:52;;;;;;;0.00;0.00;;;13.20;99.90;;;;;;5066450;28;20206;-72
2022/10/22 03:47:23;;;;;;;0.00;0.00;;;13.20;99.90;;;;;;5068876;28;20186;-71
2022/10/22 03:49:50;;;;;;;0.00;0.00;;;13.20;99.90;;;;;;5065193;28;20222;-71
2022/10/22 03:52:17;;;;;;;0.00;0.00;;;13.10;99.90;;;;;;5072844;28;20281;-71
2022/10/22 03:54:44;;;;;;;0.00;0.00;;;13.10;99.90;;;;;;5064953;28;20227;-71
2022/10/22 03:57:13;;;;;;;0.00;0.00;;;13.20;99.90;;;;;;5068825;28;20205;-71
2022/10/22 03:59:42;;;;;;;0.00;0.00;;;13.10;99.90;;;;;;5067176;28;20211;-71
2022/10/22 04:02:09;;;;;;;0.00;0.00;;;13.10;99.90;;;;;;5068128;28;20212;-72
2022/10/22 04:04:37;;;;;;;0.00;0.00;;;13.10;99.90;;;;;;5068487;28;20206;-71
2022/10/22 04:07:04;;;;;;;0.00;0.00;;;13.10;99.90;;;;;;5070841;28;20205;-71
2022/10/22 04:09:32;;;;;;;0.00;0.00;;;13.10;99.90;;;;;;5064325;28;20367;-71
2022/10/22 04:11:59;;;;;;;0.00;0.00;;;13.10;99.90;;;;;;5069070;28;20260;-72
2022/10/22 04:14:28;;;;;;;0.00;0.00;;;13.10;99.90;;;;;;5065309;28;20218;-71
2022/10/22 04:16:55;;;;;;;0.00;0.00;;;13.10;99.90;;;;;;5066346;28;20191;-72
2022/10/22 04:19:22;;;;;;;0.00;0.00;;;13.00;99.90;;;;;;5066117;28;20842;-71
2022/10/22 04:21:49;;;;;;;0.00;0.00;;;13.00;99.90;;;;;;5066549;28;20222;-71
2022/10/22 04:24:16;;;;;;;0.00;0.00;;;13.00;99.90;;;;;;5070289;28;20202;-71
2022/10/22 04:26:43;;;;;;;0.00;0.00;;;13.00;99.90;;;;;;5067853;28;20225;-71
2022/10/22 04:29:11;;;;;;;0.00;0.00;;;13.00;99.90;;;;;;5066907;28;20221;-71
2022/10/22 04:31:39;;;;;;;0.10;0.10;;;13.00;99.90;;;;;;5066853;28;20194;-71
2022/10/22 04:34:06;;;;;;;0.00;0.00;;;13.10;99.90;;;;;;5063394;28;20202;-71
2022/10/22 04:36:34;;;;;;;0.00;0.00;;;13.10;99.90;;;;;;5063492;28;20205;-71
2022/10/22 04:39:01;;;;;;;0.00;0.00;;;13.10;99.90;;;;;;5064484;28;20226;-72
2022/10/22 04:41:31;;;;;;;0.00;0.00;;;13.00;99.90;;;;;;5065130;28;20282;-71
2022/10/22 04:43:59;;;;;;;0.00;0.00;;;13.10;99.90;;;;;;5066223;28;20194;-71
2022/10/22 04:46:27;;;;;;;0.00;0.00;;;13.10;99.90;;;;;;5068843;28;20260;-71
2022/10/22 04:48:56;;;;;;;0.00;0.00;;;13.10;99.90;;;;;;5066241;28;20325;-71
2022/10/22 04:51:25;;;;;;;0.00;0.00;;;13.10;99.90;;;;;;5066869;28;20210;-71
2022/10/22 04:53:52;;;;;;;0.00;0.00;;;13.10;99.90;;;;;;5065433;28;20195;-71
2022/10/22 04:56:23;;;;;;;0.00;0.00;;;13.00;99.90;;;;;;5069130;28;20226;-72
2022/10/22 04:58:52;;;;;;;0.00;0.00;;;13.00;99.90;;;;;;5066186;28;20217;-71
2022/10/22 05:01:22;;;;;;;0.00;0.00;;;13.00;99.90;;;;;;5064535;28;20191;-71
2022/10/22 05:03:50;;;;;;;0.00;0.00;;;13.00;99.90;;;;;;5048070;28;20244;-71
2022/10/22 05:06:20;;;;;;;0.10;0.10;;;13.00;99.90;;;;;;5070743;28;20226;-71
2022/10/22 05:08:47;;;;;;;0.00;0.00;;;13.10;99.90;;;;;;5068922;28;20275;-72
2022/10/22 05:11:17;;;;;;;0.00;0.00;;;13.00;99.90;;;;;;5062935;28;20221;-71
2022/10/22 05:13:44;;;;;;;0.00;0.00;;;13.10;99.90;;;;;;5067338;28;20206;-71
2022/10/22 05:16:12;;;;;;;0.00;0.00;;;13.10;99.90;;;;;;5066614;28;20205;-71
2022/10/22 05:18:41;;;;;;;0.00;0.00;;;13.10;99.90;;;;;;5065794;28;20699;-71
2022/10/22 05:21:10;;;;;;;0.00;0.00;;;13.10;99.90;;;;;;5063171;28;20198;-71
2022/10/22 05:23:41;;;;;;;0.00;0.00;;;13.10;99.90;;;;;;5065528;28;20252;-72
2022/10/22 05:26:10;;;;;;;0.00;0.00;;;13.10;99.90;;;;;;5066795;28;20201;-71
2022/10/22 05:28:37;;;;;;;0.00;0.00;;;13.10;99.90;;;;;;5065988;28;20295;-71
2022/10/22 05:31:06;;;;;;;0.00;0.00;;;13.10;99.90;;;;;;5070265;28;20275;-71
2022/10/22 05:33:34;;;;;;;0.00;0.00;;;13.10;99.90;;;;;;5074817;28;20252;-71
2022/10/22 05:36:01;;;;;;;0.00;0.00;;;13.10;99.90;;;;;;5069794;28;20307;-71
2022/10/22 05:38:28;;;;;;;0.00;0.00;;;13.10;99.90;;;;;;5071145;28;20230;-71
2022/10/22 05:41:04;;;;;;;0.00;0.00;;;13.10;99.90;;;;;;5071159;28;20214;-71
2022/10/22 05:43:32;;;;;;;0.00;0.00;;;13.00;99.90;;;;;;5070312;28;20214;-71
2022/10/22 05:46:03;;;;;;;0.10;0.10;;;13.10;99.90;;;;;;5070542;28;20226;-71
2022/10/22 05:48:30;;;;;;;0.00;0.00;;;13.10;99.90;;;;;;5068473;28;20287;-71
2022/10/22 05:51:03;;;;;;;0.00;0.00;;;13.10;99.90;;;;;;5073256;28;20210;-71
2022/10/22 05:53:31;;;;;;;0.00;0.00;;;13.10;99.90;;;;;;5069860;28;20277;-72
2022/10/22 05:56:00;;;;;;;0.00;0.00;;;13.10;99.90;;;;;;5070500;28;20190;-71
2022/10/22 05:58:29;;;;;;;0.00;0.00;;;13.10;99.90;;;;;;5068416;28;20219;-72
2022/10/22 06:01:01;;;;;;;0.00;0.00;;;13.10;99.90;;;;;;5072709;28;20236;-71
2022/10/22 06:03:30;;;;;;;0.00;0.00;;;13.10;99.90;;;;;;5070299;28;20207;-71
2022/10/22 06:05:59;;;;;;;0.00;0.00;;;13.10;99.90;;;;;;5068360;28;20187;-72
2022/10/22 06:08:26;;;;;;;0.00;0.00;;;13.10;99.90;;;;;;5071252;28;20246;-71
2022/10/22 06:10:54;;;;;;;0.00;0.00;;;13.10;99.90;;;;;;5067395;28;20249;-71
2022/10/22 06:13:21;;;;;;;0.00;0.00;;;13.10;99.90;;;;;;5068751;28;20195;-71
2022/10/22 06:15:51;;;;;;;0.00;0.00;;;13.10;99.90;;;;;;5069063;28;20359;-71
2022/10/22 06:18:18;;;;;;;0.00;0.00;;;13.10;99.90;;;;;;5067488;28;20319;-71
2022/10/22 06:20:46;;;;;;;0.00;0.00;;;13.10;99.90;;;;;;5068321;28;20221;-71
2022/10/22 06:23:14;;;;;;;0.00;0.00;;;13.10;99.90;;;;;;5074873;28;20207;-71
2022/10/22 06:25:41;;;;;;;0.00;0.00;;;13.10;99.90;;;;;;5067826;28;20206;-71
2022/10/22 06:28:08;;;;;;;0.00;0.00;;;13.10;99.90;;;;;;5105543;27;20221;-70
2022/10/22 06:30:37;;;;;;;0.00;0.00;;;13.10;99.90;;;;;;5065179;28;20215;-71
2022/10/22 06:33:05;;;;;;;0.00;0.00;;;13.10;99.90;;;;;;5070363;28;20183;-69
2022/10/22 06:35:33;;;;;;;0.00;0.00;;;13.10;99.90;;;;;;5067859;28;20233;-70
2022/10/22 06:38:00;;;;;;;0.00;0.00;;;13.10;99.90;;;;;;5066345;28;20259;-70
2022/10/22 06:40:27;;;;;;;0.00;0.00;;;13.10;99.90;;;;;;5068640;28;20191;-71
2022/10/22 06:42:54;;;;;;;0.00;0.00;;;13.10;99.90;;;;;;5068949;28;20202;-70
2022/10/22 06:45:21;;;;;;;0.00;0.00;;;13.10;99.90;;;;;;5069734;28;20640;-70
2022/10/22 06:47:48;;;;;;;0.00;0.00;;;13.20;99.90;;;;;;5068325;28;20222;-70
2022/10/22 06:50:17;;;;;;;0.00;0.00;;;13.20;99.90;;;;;;5065973;28;20285;-71
2022/10/22 06:52:44;;;;;;;0.00;0.00;;;13.20;99.90;;;;;;5070111;28;20290;-71
2022/10/22 06:55:11;;;;;;;0.00;0.00;;;13.20;99.90;;;;;;5066721;28;20230;-70
2022/10/22 06:57:38;;;;;;;0.00;0.00;;;13.30;99.90;;;;;;5071225;28;20255;-71
2022/10/22 07:00:07;;;;;;;0.00;0.00;;;13.30;99.90;;;;;;5066763;28;20243;-71
2022/10/22 07:02:34;;;;;;;0.00;0.00;;;13.30;99.90;;;;;;5069344;28;20670;-71
2022/10/22 07:05:01;;;;;;;0.00;0.00;;;13.30;99.90;;;;;;5067335;28;20217;-70
2022/10/22 07:07:30;;;;;;;0.00;0.00;;;13.30;99.90;;;;;;5073782;28;20205;-71
2022/10/22 07:09:57;;;;;;;0.00;0.00;;;13.30;99.90;;;;;;5069355;28;20221;-71
2022/10/22 07:12:24;;;;;;;0.00;0.00;;;13.30;99.90;;;;;;5071378;28;20206;-70
2022/10/22 07:14:51;;;;;;;0.00;0.00;;;13.30;99.90;;;;;;5067953;28;20238;-70
2022/10/22 07:17:18;;;;;;;0.00;0.00;;;13.30;99.90;;;;;;5067903;28;20210;-71
2022/10/22 07:19:45;;;;;;;0.00;0.00;;;13.40;99.90;;;;;;5067315;28;20291;-71
2022/10/22 07:22:12;;;;;;;0.00;0.00;;;13.30;99.90;;;;;;5069488;28;20260;-70
2022/10/22 07:24:40;;;;;;;0.00;0.00;;;13.40;99.90;;;;;;5067628;28;20318;-71
2022/10/22 07:27:07;;;;;;;0.07;0.07;;;13.40;99.90;;;;;;5068960;28;20202;-71
2022/10/22 07:29:35;;;;;;;0.00;0.00;;;13.40;99.90;;;;;;5067588;28;20254;-70
2022/10/22 07:32:02;;;;;;;0.00;0.00;;;13.40;99.90;;;;;;5065418;28;20222;-70
2022/10/22 07:34:29;;;;;;;0.00;0.00;;;13.40;99.90;;;;;;5065701;28;20301;-71
2022/10/22 07:36:57;;;;;;;0.00;0.00;;;13.40;99.90;;;;;;5069965;28;20202;-70
2022/10/22 07:39:24;;;;;;;0.00;0.00;;;13.40;99.90;;;;;;5068966;28;20225;-70
2022/10/22 07:41:53;;;;;;;0.00;0.00;;;13.40;99.90;;;;;;5065131;28;20209;-71
2022/10/22 07:44:20;;;;;;;0.00;0.00;;;13.50;99.90;;;;;;5069093;28;20206;-70
2022/10/22 07:46:47;;;;;;;0.00;0.00;;;13.50;99.90;;;;;;5066497;28;20231;-71
2022/10/22 07:49:15;;;;;;;0.00;0.00;;;13.60;99.90;;;;;;5068391;28;20225;-71
2022/10/22 07:51:42;;;;;;;0.00;0.00;;;13.60;99.90;;;;;;5065535;28;20739;-71
2022/10/22 07:54:09;;;;;;;0.00;0.00;;;13.70;99.90;;;;;;5069937;28;20210;-71
2022/10/22 07:56:36;;;;;;;0.00;0.00;;;13.80;99.90;;;;;;5069442;28;20203;-71
2022/10/22 07:59:05;;;;;;;0.10;0.10;;;13.90;99.90;;;;;;5071035;28;20229;-71
2022/10/22 08:01:32;;;;;;;0.00;0.00;;;13.90;99.90;;;;;;5070568;28;20197;-71
2022/10/22 08:03:59;;;;;;;0.00;0.00;;;14.00;99.90;;;;;;5065539;28;20260;-70
2022/10/22 08:06:26;;;;;;;0.00;0.00;;;14.00;99.90;;;;;;5070389;28;20202;-70
2022/10/22 08:08:54;;;;;;;0.00;0.00;;;14.10;99.90;;;;;;5053814;28;20254;-70
2022/10/22 08:11:24;;;;;;;0.00;0.00;;;14.20;99.90;;;;;;5071531;28;20222;-70
2022/10/22 08:13:51;;;;;;;0.00;0.00;;;14.20;99.90;;;;;;5069164;28;20244;-70
2022/10/22 08:16:19;;;;;;;0.00;0.00;;;14.20;99.90;;;;;;5064901;28;20213;-71
2022/10/22 08:18:47;;;;;;;0.00;0.00;;;14.20;99.90;;;;;;5065985;28;20219;-71
2022/10/22 08:21:15;;;;;;;0.00;0.00;;;14.30;99.90;;;;;;5070289;28;20230;-69
2022/10/22 08:23:43;;;;;;;0.00;0.00;;;14.30;99.90;;;;;;5065873;28;20198;-69
2022/10/22 08:26:11;;;;;;;0.00;0.00;;;14.30;99.90;;;;;;5068619;28;20205;-72
2022/10/22 08:28:38;;;;;;;0.00;0.00;;;14.30;99.90;;;;;;5070318;28;20226;-70
2022/10/22 08:31:07;;;;;;;0.00;0.00;;;14.30;99.90;;;;;;5062591;28;20237;-70
2022/10/22 08:33:37;;;;;;;0.00;0.00;;;14.30;99.90;;;;;;5071845;28;20288;-69
2022/10/22 08:36:05;;;;;;;0.00;0.00;;;14.30;99.90;;;;;;5065155;28;20206;-69
2022/10/22 08:38:34;;;;;;;0.00;0.00;;;14.40;99.90;;;;;;5067070;28;20225;-69
2022/10/22 08:41:09;;;;;;;0.00;0.00;;;14.30;99.90;;;;;;5065517;28;20198;-69
2022/10/22 08:44:07;;;;;;;0.00;0.00;;;14.30;99.90;;;;;;5071817;28;20206;-69
2022/10/22 08:47:01;;;;;;;0.00;0.00;;;14.30;99.90;;;;;;5000765;28;20213;-69
2022/10/22 08:49:33;;;;;;;0.00;0.00;;;14.30;99.90;;;;;;5066324;28;20211;-69
2022/10/22 08:52:00;;;;;;;0.00;0.00;;;14.30;99.90;;;;;;5067978;28;20214;-69
2022/10/22 08:54:36;;;;;;;0.00;0.00;;;14.30;99.90;;;;;;5067666;28;20229;-69
2022/10/22 08:57:19;;;;;;;0.00;0.00;;;14.40;99.90;;;;;;5065039;28;20194;-69
2022/10/22 08:59:52;;;;;;;0.00;0.00;;;14.40;99.90;;;;;;5069665;28;20767;-69
2022/10/22 09:02:33;;;;;;;0.00;0.00;;;14.50;99.90;;;;;;5063946;28;20313;-69
2022/10/22 09:05:13;;;;;;;0.10;0.10;;;14.70;99.90;;;;;;5057451;28;20265;-69
2022/10/22 09:07:42;;;;;;;0.00;0.00;;;15.00;99.90;;;;;;5084463;28;20195;-71
2022/10/22 09:10:12;;;;;;;0.00;0.00;;;15.30;99.90;;;;;;5073120;28;20247;-72
2022/10/22 09:12:39;;;;;;;0.00;0.00;;;15.60;99.90;;;;;;5071832;28;20210;-71
2022/10/22 09:15:09;;;;;;;0.00;0.00;;;15.80;99.90;;;;;;5074230;28;20268;-69
2022/10/22 09:17:45;;;;;;;0.00;0.00;;;16.10;99.90;;;;;;5104725;27;20195;-69
2022/10/22 09:20:25;;;;;;;0.00;0.00;;;16.30;99.90;;;;;;5060750;28;20287;-69
2022/10/22 09:23:02;;;;;;;0.00;0.00;;;16.30;99.90;;;;;;5088383;28;20202;-69
2022/10/22 09:25:32;;;;;;;0.00;0.00;;;16.40;99.90;;;;;;5068093;28;20270;-69
2022/10/22 09:28:00;;;;;;;0.00;0.00;;;;;;;;;;5066909;28;20271;-69
2022/10/22 09:30:29;;;;;;;0.00;0.00;;;;;;;;;;5074566;28;20255;-69
2022/10/22 09:32:59;;;;;;;0.00;0.00;;;;;;;;;;5073865;28;20191;-69
2022/10/22 09:35:28;;;;;;;0.00;0.00;;;;;;;;;;5066648;28;20194;-68
2022/10/22 09:37:57;;;;;;;0.00;0.00;;;;;;;;;;5074855;28;20213;-69
2022/10/22 09:40:24;;;;;;;0.00;0.00;;;;;;;;;;5069768;28;20202;-72
2022/10/22 09:42:52;;;;;;;0.00;0.00;;;;;;;;;;5071182;28;20577;-69
2022/10/22 09:45:20;;;;;;;0.00;0.00;;;;;;;;;;5071997;28;20647;-69
2022/10/22 09:47:48;;;;;;;0.00;0.00;;;;;;;;;;5075048;28;20199;-71
2022/10/22 09:50:26;;;;;;;0.00;0.00;;;;;;;;;;5070936;28;20296;-71
2022/10/22 09:53:04;;;;;;;0.00;0.00;;;;;;;;;;5067869;28;20235;-71
2022/10/22 09:55:32;;;;;;;0.00;0.00;;;;;;;;;;5088106;28;20213;-71
2022/10/22 09:58:00;;;;;;;0.00;0.00;;;;;;;;;;5067222;28;20219;-71
2022/10/22 10:00:28;;;;;;;0.00;0.00;;;;;;;;;;5069397;28;20217;-70
2022/10/22 10:02:56;;;;;;;0.00;0.00;;;;;;;;;;5071664;28;20228;-70
2022/10/22 10:05:28;;;;;;;0.00;0.00;;;;;;;;;;5069796;28;20202;-70
2022/10/22 10:07:55;;;;;;;0.00;0.00;;;;;;;;;;5071130;28;20202;-70
2022/10/22 10:10:28;;;;;;;0.00;0.00;;;;;;;;;;5069697;28;20198;-70
2022/10/22 10:12:57;;;;;;;0.00;0.00;;;;;;;;;;5073530;28;20309;-70
2022/10/22 10:15:28;;;;;;;0.00;0.00;;;;;;;;;;5071536;28;20190;-70
2022/10/22 10:18:01;;;;;;;0.00;0.00;;;;;;;;;;5066683;28;20199;-70
2022/10/22 10:20:32;;;;;;;0.00;0.00;;;;;;;;;;5072470;28;20194;-69
2022/10/22 10:23:03;;;;;;;0.00;0.00;;;;;;;;;;5070257;28;20203;-69
2022/10/22 10:25:42;;;;;;;0.00;0.00;;;;;;;;;;5070662;28;20201;-69
2022/10/22 10:28:20;;;;;;;0.00;0.00;;;;;;;;;;5072998;28;20222;-70
2022/10/22 10:30:52;;;;;;;0.00;0.00;;;;;;;;;;5106432;27;20207;-69
2022/10/22 10:33:32;;;;;;;0.00;0.00;;;18.20;99.90;;;;;;5075200;28;20206;-69
2022/10/22 10:36:04;;;;;;;0.00;0.00;;;;;;;;;;5058241;28;20623;-69
2022/10/22 10:38:36;;;;;;;0.00;0.00;;;;;;;;;;5073015;28;20305;-68
2022/10/22 10:41:16;;;;;;;0.00;0.00;;;19.50;99.90;;;;;;5067287;28;20203;-68
2022/10/22 10:43:53;;;;;;;0.00;0.00;;;20.00;99.90;;;;;;5073779;28;20209;-68
2022/10/22 10:46:25;;;;;;;0.00;0.00;;;;;;;;;;5053053;28;20226;-68
2022/10/22 10:48:56;;;;;;;0.00;0.00;;;;;;;;;;5073713;28;20226;-68
2022/10/22 10:51:32;;;;;;;0.00;0.00;;;;;;;;;;5069384;28;20233;-69
2022/10/22 10:54:03;;;;;;;0.00;0.00;;;;;;;;;;5072729;28;20193;-69
2022/10/22 10:56:38;;;;;;;0.00;0.00;;;;;;;;;;5066072;28;20247;-69
2022/10/22 10:59:12;;;;;;;0.00;0.00;;;;;;;;;;5067804;28;20245;-69
2022/10/22 11:01:43;;;;;;;0.00;0.00;;;;;;;;;;5098273;27;20200;-68
2022/10/22 11:04:28;;;;;;;0.00;0.00;;;;;;;;;;5051138;28;20195;-69
2022/10/22 11:06:57;;;;;;;0.00;0.00;;;;;;;;;;5071025;28;20643;-69
2022/10/22 11:09:26;;;;;;;0.00;0.00;;;;;;;;;;5066293;28;20297;-71
2022/10/22 11:11:57;;;;;;;0.00;0.00;;;;;;;;;;5067159;28;20207;-72
2022/10/22 11:14:28;;;;;;;0.00;0.00;;;;;;;;;;5101794;27;20206;-72
2022/10/22 11:16:57;;;;;;;0.00;0.00;;;;;;;;;;5067165;28;20255;-71
2022/10/22 11:19:26;;;;;;;0.00;0.00;;;;;;;;;;5069362;28;20222;-71
2022/10/22 11:21:58;;;;;;;0.00;0.00;;;;;;;;;;5086421;28;20209;-69
2022/10/22 11:24:26;;;;;;;0.00;0.00;;;;;;;;;;5102202;27;20471;-71
2022/10/22 11:26:57;;;;;;;0.00;0.00;;;;;;;;;;5078169;28;20198;-72
2022/10/22 11:29:26;;;;;;;0.00;0.00;;;;;;;;;;5067012;28;20222;-71
2022/10/22 11:31:54;;;;;;;0.00;0.00;;;;;;;;;;5069007;28;20214;-69
2022/10/22 11:34:23;;;;;;;0.00;0.00;;;;;;;;;;5067385;28;20202;-69
2022/10/22 11:36:51;;;;;;;0.00;0.00;;;;;;;;;;5101873;27;20290;-69
2022/10/22 11:39:32;;;;;;;0.00;0.00;;;;;;;;;;5067475;28;20274;-69
2022/10/22 11:42:02;;;;;;;0.00;0.00;;;;;;;;;;5086721;28;20198;-69
2022/10/22 11:44:31;;;;;;;0.00;0.00;;;;;;;;;;5066451;28;20285;-68
2022/10/22 11:47:00;;;;;;;0.00;0.00;;;;;;;;;;5068463;28;20203;-68
2022/10/22 11:49:28;;;;;;;0.00;0.00;;;;;;;;;;5068848;28;20241;-69
2022/10/22 11:52:23;;;;;;;0.00;0.00;;;;;;;;;;5068988;28;20238;-68
2022/10/22 11:54:54;;;;;;;0.00;0.00;;;;;;;;;;5070411;28;20195;-68
2022/10/22 11:57:26;;;;;;;0.00;0.00;;;;;;;;;;5100738;27;20228;-70
2022/10/22 11:59:54;;;;;;;0.00;0.00;;;;;;;;;;5070961;28;20214;-68
2022/10/22 12:02:30;;;;;;;0.00;0.00;;;;;;;;;;5069442;28;20201;-68
2022/10/22 12:05:12;;;;;;;0.00;0.00;;;;;;;;;;5070557;28;20281;-68
2022/10/22 12:07:52;;;;;;;0.00;0.00;;;;;;;;;;5067573;28;20205;-68
2022/10/22 12:10:20;;;;;;;0.00;0.00;;;;;;;;;;5074034;28;20194;-68
2022/10/22 12:12:56;;;;;;;0.00;0.00;;;;;;;;;;5067912;28;20279;-68
2022/10/22 12:15:25;;;;;;;0.00;0.00;;;;;;;;;;5067570;28;20263;-69
2022/10/22 12:17:57;;;;;;;0.00;0.00;;;;;;;;;;5066105;28;20240;-69
2022/10/22 12:20:25;;;;;;;0.00;0.00;;;;;;;;;;5071239;28;20191;-69
2022/10/22 12:22:53;;;;;;;0.00;0.00;;;;;;;;;;5069554;28;20186;-69
2022/10/22 12:25:23;;;;;;;0.00;0.00;;;;;;;;;;5067056;28;20206;-69
2022/10/22 12:27:52;;;;;;;0.00;0.00;;;;;;;;;;5102703;27;20229;-69
2022/10/22 12:30:22;;;;;;;0.00;0.00;;;;;;;;;;5069418;28;20214;-70
2022/10/22 12:32:52;;;;;;;0.00;0.00;;;;;;;;;;5066254;28;20703;-72
2022/10/22 12:35:24;;;;;;;0.00;0.00;;;;;;;;;;5062554;28;20391;-70
2022/10/22 12:37:52;;;;;;;0.00;0.00;;;;;;;;;;5060856;28;20199;-70
2022/10/22 12:40:21;;;;;;;0.00;0.00;;;;;;;;;;5064398;28;20206;-68
2022/10/22 12:42:49;;;;;;;0.00;0.00;;;;;;;;;;5068503;28;20206;-68
2022/10/22 12:45:16;;;;;;;0.00;0.00;;;;;;;;;;5064146;28;20321;-69
2022/10/22 12:47:47;;;;;;;0.00;0.00;;;;;;;;;;5065850;28;20279;-69
2022/10/22 12:50:18;;;;;;;0.00;0.00;;;;;;;;;;5065124;28;20381;-68
2022/10/22 12:52:46;;;;;;;0.00;0.00;;;;;;;;;;5068529;28;20305;-67
2022/10/22 12:55:17;;;;;;;0.00;0.00;;;;;;;;;;5066002;28;20213;-67
2022/10/22 12:57:46;;;;;;;0.00;0.00;;;;;;;;;;5061790;28;20206;-69
2022/10/22 13:00:21;;;;;;;0.00;0.00;;;;;;;;;;5065759;28;20202;-69
2022/10/22 13:02:50;;;;;;;0.00;0.00;;;;;;;;;;5067559;28;20197;-68
2022/10/22 13:05:22;;;;;;;0.00;0.00;;;;;;;;;;5068027;28;20257;-68
2022/10/22 13:07:50;;;;;;;0.00;0.00;;;;;;;;;;5098523;27;20213;-68
2022/10/22 13:10:20;;;;;;;0.00;0.00;;;;;;;;;;5080049;28;20365;-67
2022/10/22 13:12:50;;;;;;;0.00;0.00;;;;;;;;;;5065692;28;20222;-69
2022/10/22 13:15:22;;;;;;;0.00;0.00;;;;;;;;;;5068033;28;20201;-68
2022/10/22 13:17:51;;;;;;;0.00;0.00;;;;;;;;;;5063832;28;20209;-68
2022/10/22 13:20:21;;;;;;;0.00;0.00;;;;;;;;;;5065276;28;20202;-68
2022/10/22 13:22:58;;;;;;;0.00;0.00;;;;;;;;;;5065135;28;20187;-69
2022/10/22 13:25:27;;;;;;;0.00;0.00;;;;;;;;;;5099667;28;20197;-68
2022/10/22 13:27:56;;;;;;;0.00;0.00;;;;;;;;;;5066136;28;20208;-69
2022/10/22 13:30:25;;;;;;;0.00;0.00;;;;;;;;;;5100959;28;20210;-68
2022/10/22 13:32:54;;;;;;;0.00;0.00;;;;;;;;;;5069808;28;20280;-69